Time;durP1;ratioP1;P1;durP2;ratioP2;P2;SDS_P1;SDS_P2;PMS_P1;PMS_P2;Temp;Humidity;BMP_temperature;BMP_pressure;BME280_temperature;BME280_humidity;BME280_pressure;Samples;Min_cycle;Max_cycle;Signal;HPM_P1;HPM_P2
2021/10/03 00:01:02;;;;;;;7.85;5.30;;;;;;;20.75;32.69;100745.22;1710965;82;21575;-40
2021/10/03 00:03:28;;;;;;;6.15;4.95;;;;;;;20.74;32.69;100736.79;1711861;80;21023;-40
2021/10/03 00:05:56;;;;;;;6.47;5.75;;;;;;;20.73;32.69;100739.58;1706423;81;21489;-40
2021/10/03 00:08:25;;;;;;;7.22;5.72;;;;;;;20.72;32.70;100739.19;1726657;81;21015;-40
2021/10/03 00:10:53;;;;;;;6.92;5.33;;;;;;;20.71;32.65;100742.80;1699367;82;21258;-40
2021/10/03 00:13:21;;;;;;;6.08;5.45;;;;;;;20.67;32.64;100746.13;1725603;81;21070;-40
2021/10/03 00:15:47;;;;;;;8.88;5.85;;;;;;;20.65;32.68;100753.38;1714157;82;21022;-42
2021/10/03 00:18:14;;;;;;;7.40;5.45;;;;;;;20.65;32.70;100749.37;1715672;81;20975;-40
2021/10/03 00:20:40;;;;;;;8.48;5.53;;;;;;;20.63;32.61;100748.60;1690728;83;21099;-40
2021/10/03 00:23:07;;;;;;;7.08;5.58;;;;;;;20.60;32.59;100746.06;1718528;82;21281;-41
2021/10/03 00:25:34;;;;;;;8.13;5.45;;;;;;;20.57;32.53;100746.23;1709959;82;21097;-40
2021/10/03 00:28:06;;;;;;;8.15;5.67;;;;;;;20.54;32.52;100745.95;1752591;80;21133;-40
2021/10/03 00:30:36;;;;;;;7.53;6.20;;;;;;;20.50;32.52;100748.87;1712475;81;21170;-40
2021/10/03 00:33:03;;;;;;;6.20;5.12;;;;;;;20.46;32.53;100750.86;1693557;82;21004;-41
2021/10/03 00:35:31;;;;;;;7.45;5.53;;;;;;;20.41;32.52;100749.77;1736262;81;21116;-41
2021/10/03 00:37:59;;;;;;;6.15;5.37;;;;;;;20.38;32.49;100749.94;1696928;81;21578;-40
2021/10/03 00:40:28;;;;;;;10.68;5.92;;;;;;;20.35;32.52;100750.11;1724677;81;21155;-40
2021/10/03 00:42:56;;;;;;;6.33;5.10;;;;;;;20.33;32.53;100752.02;1710954;81;21019;-41
2021/10/03 00:45:23;;;;;;;6.85;5.45;;;;;;;20.32;32.53;100746.75;1692909;82;21079;-41
2021/10/03 00:47:49;;;;;;;7.33;5.22;;;;;;;20.29;32.49;100747.80;1707906;80;21123;-40
2021/10/03 00:50:16;;;;;;;10.50;6.22;;;;;;;20.28;32.49;100747.39;1716487;80;21032;-40
2021/10/03 00:52:45;;;;;;;9.58;5.40;;;;;;;20.26;32.46;100748.41;1716737;81;21042;-41
2021/10/03 00:55:13;;;;;;;10.35;5.75;;;;;;;20.22;32.43;100753.95;1727460;81;21032;-40
2021/10/03 00:57:42;;;;;;;6.17;5.45;;;;;;;20.19;32.43;100747.44;1716232;82;20925;-40
2021/10/03 01:00:11;;;;;;;12.65;6.22;;;;;;;20.16;32.47;100744.08;1721680;80;21961;-40
2021/10/03 01:02:37;;;;;;;10.00;6.05;;;;;;;20.13;32.46;100745.58;1705325;82;21112;-42
2021/10/03 01:05:07;;;;;;;8.55;6.15;;;;;;;20.11;32.52;100744.80;1656904;83;21080;-40
2021/10/03 01:07:33;;;;;;;8.48;6.53;;;;;;;20.09;32.50;100744.00;1702518;83;21043;-40
2021/10/03 01:10:00;;;;;;;10.03;6.28;;;;;;;20.09;32.54;100742.66;1689838;83;21316;-41
2021/10/03 01:12:27;;;;;;;8.08;6.00;;;;;;;20.08;32.51;100743.62;1717229;83;21195;-40
2021/10/03 01:14:53;;;;;;;7.72;6.10;;;;;;;20.10;32.49;100740.39;1699640;82;21676;-40
2021/10/03 01:17:19;;;;;;;8.43;5.20;;;;;;;20.10;32.43;100737.72;1710553;83;21088;-40
2021/10/03 01:19:47;;;;;;;7.87;5.87;;;;;;;20.09;32.44;100735.98;1704819;83;21152;-41
2021/10/03 01:22:15;;;;;;;10.32;6.60;;;;;;;20.07;32.41;100736.55;1706339;83;21160;-40
2021/10/03 01:24:42;;;;;;;10.03;6.53;;;;;;;20.04;32.37;100737.11;1702801;82;21128;-40
2021/10/03 01:27:08;;;;;;;7.67;6.25;;;;;;;20.00;32.31;100737.36;1704570;82;21121;-41
2021/10/03 01:29:36;;;;;;;9.58;6.35;;;;;;;19.96;32.29;100739.34;1731364;80;21086;-40
2021/10/03 01:32:04;;;;;;;7.72;6.62;;;;;;;19.91;32.26;100741.39;1729217;81;20999;-41
2021/10/03 01:34:31;;;;;;;11.20;7.33;;;;;;;19.87;32.25;100741.19;1745679;81;21209;-40
2021/10/03 01:36:58;;;;;;;11.73;6.80;;;;;;;19.82;32.31;100736.53;1694518;82;21272;-40
2021/10/03 01:39:24;;;;;;;9.13;6.53;;;;;;;19.78;32.39;100737.66;1695337;83;21290;-41
2021/10/03 01:41:50;;;;;;;7.78;6.67;;;;;;;19.74;32.38;100736.08;1623247;83;21045;-41
2021/10/03 01:44:16;;;;;;;7.20;6.37;;;;;;;19.73;32.43;100737.01;1710791;83;22587;-41
2021/10/03 01:46:43;;;;;;;7.85;6.83;;;;;;;19.69;32.40;100734.98;1703200;82;21030;-41
2021/10/03 01:49:10;;;;;;;8.93;6.75;;;;;;;19.67;32.40;100739.06;1726373;82;23324;-41
2021/10/03 01:51:36;;;;;;;10.75;7.37;;;;;;;19.65;32.44;100740.08;1703891;83;21051;-42
2021/10/03 01:54:02;;;;;;;10.23;7.03;;;;;;;19.64;32.48;100743.23;1718787;82;21482;-41
2021/10/03 01:56:31;;;;;;;13.10;8.25;;;;;;;19.64;32.50;100741.89;1733925;82;21102;-41
2021/10/03 01:59:03;;;;;;;12.18;8.00;;;;;;;19.64;32.50;100741.03;1701709;82;21090;-41
2021/10/03 02:01:34;;;;;;;10.30;8.10;;;;;;;19.65;32.50;100738.29;1711261;81;21095;-40
2021/10/03 02:04:05;;;;;;;10.40;7.33;;;;;;;19.65;32.48;100744.97;1720522;82;21052;-40
2021/10/03 02:06:37;;;;;;;11.45;8.53;;;;;;;19.69;32.40;100736.31;1725408;80;21360;-41
2021/10/03 02:09:04;;;;;;;12.90;8.03;;;;;;;19.73;32.34;100739.68;1705270;82;21105;-40
2021/10/03 02:11:31;;;;;;;15.68;9.00;;;;;;;19.76;32.27;100735.06;1710760;82;21573;-41
2021/10/03 02:13:57;;;;;;;14.25;8.55;;;;;;;19.78;32.25;100737.17;1735591;82;21173;-40
2021/10/03 02:16:25;;;;;;;15.25;8.70;;;;;;;19.79;32.25;100741.59;1725935;81;21039;-42
2021/10/03 02:18:54;;;;;;;12.95;8.18;;;;;;;19.78;32.24;100741.19;1713799;82;21569;-40
2021/10/03 02:21:21;;;;;;;17.37;8.33;;;;;;;19.75;32.26;100737.81;1730841;82;21113;-40
2021/10/03 02:23:47;;;;;;;13.08;7.75;;;;;;;19.74;32.27;100738.75;1700460;82;21636;-41
2021/10/03 02:26:14;;;;;;;13.53;8.65;;;;;;;19.69;32.24;100738.98;1720563;82;21183;-40
2021/10/03 02:28:40;;;;;;;15.80;8.20;;;;;;;19.67;32.27;100740.40;1717115;82;21511;-41
2021/10/03 02:31:10;;;;;;;12.25;8.18;;;;;;;19.65;32.28;100740.08;1733695;82;21059;-40
2021/10/03 02:33:39;;;;;;;12.85;8.10;;;;;;;19.61;32.28;100736.70;1726154;81;20968;-40
2021/10/03 02:36:06;;;;;;;11.85;8.45;;;;;;;19.59;32.38;100747.95;1686510;82;21133;-41
2021/10/03 02:38:33;;;;;;;14.50;8.78;;;;;;;19.58;32.40;100742.20;1737187;81;21102;-42
2021/10/03 02:41:00;;;;;;;10.08;8.03;;;;;;;19.57;32.39;100741.83;1716354;81;21069;-41
2021/10/03 02:43:30;;;;;;;12.33;8.80;;;;;;;19.57;32.38;100743.16;1705087;82;21053;-41
2021/10/03 02:45:57;;;;;;;11.40;8.45;;;;;;;19.59;32.36;100751.09;1715001;81;20993;-41
2021/10/03 02:48:25;;;;;;;11.10;8.35;;;;;;;19.60;32.33;100748.80;1737726;80;21429;-41
2021/10/03 02:50:51;;;;;;;13.98;8.75;;;;;;;19.63;32.31;100747.31;1718291;82;21112;-40
2021/10/03 02:53:19;;;;;;;17.62;8.53;;;;;;;19.63;32.28;100752.17;1741600;81;22227;-40
2021/10/03 02:55:46;;;;;;;17.10;8.48;;;;;;;19.62;32.21;100747.79;1718757;82;21052;-41
2021/10/03 02:58:13;;;;;;;15.40;8.80;;;;;;;19.58;32.31;100742.20;1708916;82;21158;-41
2021/10/03 03:00:40;;;;;;;13.60;9.13;;;;;;;19.55;32.29;100747.73;1704564;83;21090;-41
2021/10/03 03:03:06;;;;;;;14.85;8.68;;;;;;;19.52;32.38;100745.22;1703846;83;22200;-42
2021/10/03 03:05:33;;;;;;;15.23;8.80;;;;;;;19.50;32.42;100744.41;1682422;83;20996;-41
2021/10/03 03:08:01;;;;;;;14.70;8.63;;;;;;;19.47;32.47;100748.60;1721218;81;21605;-42
2021/10/03 03:10:28;;;;;;;12.63;8.75;;;;;;;19.45;32.48;100749.13;1717427;82;21286;-40
2021/10/03 03:12:54;;;;;;;13.70;8.53;;;;;;;19.43;32.51;100746.56;1707239;83;22228;-43
2021/10/03 03:15:21;;;;;;;16.25;8.68;;;;;;;19.45;32.51;100743.78;1740495;80;21063;-41
2021/10/03 03:17:47;;;;;;;11.33;8.45;;;;;;;19.46;32.48;100746.86;1740812;81;21022;-43
2021/10/03 03:20:14;;;;;;;14.13;8.63;;;;;;;19.47;32.50;100748.60;1713667;82;21074;-41
2021/10/03 03:22:40;;;;;;;13.60;8.63;;;;;;;19.47;32.48;100745.45;1706631;82;21093;-41
2021/10/03 03:25:09;;;;;;;13.62;8.35;;;;;;;19.47;32.50;100741.92;1676408;83;21470;-40
2021/10/03 03:27:35;;;;;;;13.85;8.88;;;;;;;19.48;32.48;100740.97;1713449;83;21809;-40
2021/10/03 03:30:04;;;;;;;13.22;8.40;;;;;;;19.49;32.46;100742.70;1711494;81;21087;-41
2021/10/03 03:32:30;;;;;;;14.98;8.78;;;;;;;19.48;32.45;100744.97;1732397;80;21039;-40
2021/10/03 03:34:57;;;;;;;13.20;8.33;;;;;;;19.46;32.49;100741.04;1737272;81;21057;-40
2021/10/03 03:37:25;;;;;;;12.25;8.55;;;;;;;19.44;32.49;100746.94;1739820;80;21632;-41
2021/10/03 03:39:51;;;;;;;14.78;8.35;;;;;;;19.43;32.52;100745.68;1711902;82;21778;-41
2021/10/03 03:42:18;;;;;;;12.95;8.05;;;;;;;19.42;32.55;100749.31;1725653;81;21072;-40
2021/10/03 03:44:44;;;;;;;11.60;8.60;;;;;;;19.42;32.56;100750.64;1728773;81;21059;-41
2021/10/03 03:47:10;;;;;;;14.05;8.80;;;;;;;19.41;32.56;100751.58;1751815;80;20977;-39
2021/10/03 03:49:38;;;;;;;16.15;8.45;;;;;;;19.42;32.59;100751.50;1728022;80;21594;-40
2021/10/03 03:52:06;;;;;;;10.45;8.23;;;;;;;19.43;32.54;100752.35;1706088;81;21851;-40
2021/10/03 03:54:32;;;;;;;13.70;8.45;;;;;;;19.46;32.50;100752.20;1732194;81;21420;-41
2021/10/03 03:57:01;;;;;;;13.85;8.10;;;;;;;19.45;32.49;100746.45;1706091;81;21047;-40
2021/10/03 03:59:28;;;;;;;12.95;7.83;;;;;;;19.43;32.54;100753.69;1737206;79;22098;-40
2021/10/03 04:01:54;;;;;;;13.55;7.87;;;;;;;19.40;32.58;100749.84;1690275;82;21051;-40
2021/10/03 04:04:22;;;;;;;15.05;8.55;;;;;;;19.39;32.64;100745.46;1750020;80;21097;-40
2021/10/03 04:06:48;;;;;;;11.93;7.67;;;;;;;19.40;32.71;100756.51;1709754;82;21620;-40
2021/10/03 04:09:15;;;;;;;13.03;8.23;;;;;;;19.39;32.66;100746.80;1718875;81;21122;-40
2021/10/03 04:11:41;;;;;;;14.07;8.53;;;;;;;19.41;32.65;100755.58;1725288;81;21047;-41
2021/10/03 04:14:08;;;;;;;13.08;8.28;;;;;;;19.44;32.59;100760.77;1709862;82;21125;-40
2021/10/03 04:16:34;;;;;;;11.65;8.18;;;;;;;19.45;32.51;100762.02;1718803;81;21057;-40
2021/10/03 04:19:01;;;;;;;13.83;8.50;;;;;;;19.47;32.48;100761.95;1650417;85;21447;-40
2021/10/03 04:21:27;;;;;;;14.58;8.75;;;;;;;19.48;32.41;100764.53;1711158;82;21099;-41
2021/10/03 04:23:54;;;;;;;15.28;8.48;;;;;;;19.50;32.37;100767.09;1714110;81;21642;-40
2021/10/03 04:26:20;;;;;;;14.43;8.70;;;;;;;19.50;32.33;100769.77;1719585;81;21074;-40
2021/10/03 04:28:46;;;;;;;13.72;8.38;;;;;;;19.52;32.30;100774.58;1706928;82;21055;-40
2021/10/03 04:31:13;;;;;;;14.47;8.63;;;;;;;19.54;32.29;100782.03;1717130;82;21071;-40
2021/10/03 04:33:41;;;;;;;12.45;8.20;;;;;;;19.54;32.24;100786.03;1706412;82;21502;-40
2021/10/03 04:36:10;;;;;;;12.05;8.78;;;;;;;19.56;32.22;100778.80;1672538;83;21459;-40
2021/10/03 04:38:37;;;;;;;10.98;8.33;;;;;;;19.58;32.21;100782.73;1677259;83;22272;-40
2021/10/03 04:41:05;;;;;;;15.78;8.75;;;;;;;19.58;32.12;100782.25;1680809;83;21167;-40
2021/10/03 04:43:32;;;;;;;13.70;8.80;;;;;;;19.58;32.14;100783.58;1687260;83;21427;-40
2021/10/03 04:45:58;;;;;;;13.38;8.30;;;;;;;19.57;32.14;100792.55;1718618;81;21038;-40
2021/10/03 04:48:25;;;;;;;11.73;8.53;;;;;;;19.57;32.14;100792.55;1705444;81;21553;-40
2021/10/03 04:50:51;;;;;;;12.00;8.65;;;;;;;19.56;32.15;100785.48;1741709;80;21064;-41
2021/10/03 04:53:19;;;;;;;12.15;8.23;;;;;;;19.57;32.18;100795.22;1701709;81;21212;-40
2021/10/03 04:55:45;;;;;;;15.15;8.68;;;;;;;19.55;32.18;100791.78;1712523;81;21079;-40
2021/10/03 04:58:12;;;;;;;14.93;9.28;;;;;;;19.54;32.22;100791.38;1730551;80;21131;-39
2021/10/03 05:00:38;;;;;;;15.60;9.15;;;;;;;19.56;32.24;100797.48;1706964;82;22265;-40
2021/10/03 05:03:04;;;;;;;11.97;8.53;;;;;;;19.58;32.21;100798.75;1725510;80;21613;-40
2021/10/03 05:05:32;;;;;;;11.75;8.58;;;;;;;19.58;32.29;100796.93;1736893;80;21073;-40
2021/10/03 05:07:58;;;;;;;13.75;7.87;;;;;;;19.59;32.48;100793.33;1731538;81;21078;-40
2021/10/03 05:10:25;;;;;;;12.80;8.93;;;;;;;19.62;32.78;100791.84;1692714;82;21155;-40
2021/10/03 05:12:52;;;;;;;13.40;7.83;;;;;;;19.67;33.13;100792.47;1716480;81;21154;-40
2021/10/03 05:15:20;;;;;;;9.63;7.47;;;;;;;19.72;33.37;100795.35;1703611;80;21565;-40
2021/10/03 05:17:46;;;;;;;8.60;7.50;;;;;;;19.74;33.52;100795.68;1717432;80;21147;-40
2021/10/03 05:20:13;;;;;;;9.90;7.55;;;;;;;19.77;33.62;100795.55;1739359;80;21026;-40
2021/10/03 05:22:39;;;;;;;11.18;7.05;;;;;;;19.80;33.80;100791.84;1717394;82;20990;-40
2021/10/03 05:25:08;;;;;;;8.63;6.95;;;;;;;19.82;33.97;100794.84;1726111;80;21169;-41
2021/10/03 05:27:34;;;;;;;9.98;7.75;;;;;;;19.85;34.21;100797.80;1718746;81;21031;-44
2021/10/03 05:30:01;;;;;;;1111.95;796.37;;;;;;;19.89;34.32;100794.05;1728290;82;21073;-43
2021/10/03 05:32:28;;;;;;;540.73;422.37;;;;;;;19.93;34.50;100791.59;1700761;82;21129;-43
2021/10/03 05:34:54;;;;;;;357.02;285.45;;;;;;;19.98;34.53;100797.55;1728514;80;21022;-44
2021/10/03 05:37:20;;;;;;;326.35;255.87;;;;;;;20.01;34.28;100793.86;1728915;80;21395;-44
2021/10/03 05:39:47;;;;;;;276.12;214.95;;;;;;;20.02;34.18;100792.89;1681779;83;21028;-46
2021/10/03 05:42:13;;;;;;;256.50;199.02;;;;;;;20.02;33.97;100793.78;1719644;81;21055;-42
2021/10/03 05:44:39;;;;;;;253.52;191.90;;;;;;;20.02;33.89;100796.91;1702531;82;21014;-42
2021/10/03 05:47:06;;;;;;;212.05;155.22;;;;;;;20.00;33.90;100791.64;1732556;80;21060;-42
2021/10/03 05:49:34;;;;;;;181.85;132.97;;;;;;;20.00;33.85;100793.45;1730472;80;21051;-42
2021/10/03 05:52:00;;;;;;;173.55;129.38;;;;;;;19.97;33.84;100794.50;1735994;81;21071;-42
2021/10/03 05:54:26;;;;;;;170.72;126.53;;;;;;;19.95;33.86;100795.03;1721037;81;21627;-42
2021/10/03 05:56:53;;;;;;;145.47;107.32;;;;;;;19.91;33.86;100794.81;1734411;80;21059;-42
2021/10/03 05:59:19;;;;;;;155.63;114.65;;;;;;;19.91;33.88;100796.64;1714898;80;21500;-41
2021/10/03 06:01:46;;;;;;;127.02;88.85;;;;;;;19.88;33.95;100797.65;1697745;82;21013;-43
2021/10/03 06:04:13;;;;;;;145.72;106.45;;;;;;;19.87;34.00;100798.61;1712195;81;21039;-41
2021/10/03 06:06:39;;;;;;;131.07;97.57;;;;;;;19.90;34.14;100807.77;1707201;82;21037;-42
2021/10/03 06:09:06;;;;;;;122.30;87.82;;;;;;;19.93;34.10;100806.76;1717551;82;21096;-42
2021/10/03 06:11:33;;;;;;;108.35;75.90;;;;;;;19.95;34.07;100811.05;1731970;81;21039;-42
2021/10/03 06:13:59;;;;;;;101.02;72.65;;;;;;;19.97;33.98;100806.52;1708249;81;21063;-42
2021/10/03 06:16:25;;;;;;;90.85;64.30;;;;;;;19.99;33.99;100816.65;1694546;81;21197;-41
2021/10/03 06:18:53;;;;;;;99.75;70.15;;;;;;;20.01;34.00;100815.23;1655043;83;21128;-41
2021/10/03 06:21:20;;;;;;;83.82;57.90;;;;;;;20.01;34.05;100816.08;1733766;81;21570;-44
2021/10/03 06:23:46;;;;;;;72.10;48.68;;;;;;;20.06;34.00;100812.32;1720705;80;21031;-45
2021/10/03 06:26:13;;;;;;;80.35;53.87;;;;;;;20.07;33.90;100810.88;1737093;79;21621;-44
2021/10/03 06:28:42;;;;;;;75.37;53.15;;;;;;;20.09;33.96;100810.80;1722277;80;21020;-44
2021/10/03 06:31:08;;;;;;;72.50;51.10;;;;;;;20.12;33.96;100807.97;1718628;80;21767;-44
2021/10/03 06:33:37;;;;;;;64.67;45.63;;;;;;;20.15;33.99;100814.00;1734849;81;21016;-43
2021/10/03 06:36:06;;;;;;;64.60;44.30;;;;;;;20.19;33.95;100813.36;1726510;81;20976;-44
2021/10/03 06:38:32;;;;;;;52.62;35.38;;;;;;;20.21;33.84;100809.67;1697768;82;21020;-44
2021/10/03 06:40:58;;;;;;;54.48;36.63;;;;;;;20.22;33.86;100806.52;1666444;83;21130;-44
2021/10/03 06:43:25;;;;;;;52.60;34.90;;;;;;;20.25;33.80;100810.84;1665251;83;21145;-44
2021/10/03 06:45:52;;;;;;;45.33;29.63;;;;;;;20.25;33.79;100809.03;1726575;80;21075;-43
2021/10/03 06:48:18;;;;;;;39.10;27.25;;;;;;;20.27;33.68;100809.80;1712190;82;21494;-44
2021/10/03 06:50:45;;;;;;;36.13;24.67;;;;;;;20.26;33.61;100812.55;1689536;83;21067;-44
2021/10/03 06:53:11;;;;;;;44.33;27.15;;;;;;;20.22;33.47;100806.52;1675001;83;21589;-44
2021/10/03 06:55:37;;;;;;;42.35;23.83;;;;;;;20.16;33.57;100812.22;1711104;80;21066;-44
2021/10/03 06:58:04;;;;;;;31.20;21.73;;;;;;;20.14;33.77;100808.73;1693081;82;21166;-44
2021/10/03 07:00:30;;;;;;;1999.90;999.90;;;;;;;20.18;33.75;100807.64;1679419;83;21083;-44
2021/10/03 07:02:57;;;;;;;655.45;518.20;;;;;;;20.22;34.15;100809.19;1699043;83;21430;-43
2021/10/03 07:05:24;;;;;;;386.60;305.40;;;;;;;20.23;33.97;100807.77;1687957;83;21035;-43
2021/10/03 07:07:50;;;;;;;301.35;223.75;;;;;;;20.25;33.89;100806.36;1726092;81;21141;-43
2021/10/03 07:10:17;;;;;;;267.77;203.00;;;;;;;20.27;33.81;100809.80;1719275;82;21525;-44
2021/10/03 07:12:44;;;;;;;210.20;150.15;;;;;;;20.30;33.90;100806.11;1709119;81;21039;-43
2021/10/03 07:15:10;;;;;;;222.42;160.22;;;;;;;20.35;33.78;100810.73;1694135;82;21094;-43
2021/10/03 07:17:38;;;;;;;225.53;163.82;;;;;;;20.37;33.68;100812.36;1730669;81;21050;-43
2021/10/03 07:20:06;;;;;;;171.60;123.02;;;;;;;20.41;33.73;100811.74;1703073;82;21845;-43
2021/10/03 07:22:34;;;;;;;157.88;109.97;;;;;;;20.46;33.41;100811.47;1682581;84;21102;-43
2021/10/03 07:25:00;;;;;;;141.22;103.25;;;;;;;20.48;33.02;100813.13;1686128;83;21062;-43
2021/10/03 07:27:26;;;;;;;147.28;106.15;;;;;;;20.44;32.83;100811.55;1705616;83;20908;-43
2021/10/03 07:29:54;;;;;;;146.68;104.03;;;;;;;20.39;32.74;100809.15;1703890;81;21059;-42
2021/10/03 07:32:21;;;;;;;126.47;87.57;;;;;;;20.39;32.91;100808.27;1716584;81;21119;-43
2021/10/03 07:34:47;;;;;;;120.92;84.85;;;;;;;20.39;32.89;100805.14;1712276;83;21063;-44
2021/10/03 07:37:14;;;;;;;123.22;86.60;;;;;;;20.43;32.90;100807.65;1704257;81;20972;-44
2021/10/03 07:39:40;;;;;;;104.83;73.45;;;;;;;20.47;33.29;100805.19;1706868;82;21064;-43
2021/10/03 07:42:06;;;;;;;83.00;56.55;;;;;;;20.52;33.29;100809.31;1717677;81;21541;-43
2021/10/03 07:44:34;;;;;;;84.00;58.45;;;;;;;20.58;33.01;100805.45;1719716;82;21027;-43
2021/10/03 07:47:01;;;;;;;85.17;59.15;;;;;;;20.60;32.62;100802.22;1733695;80;21056;-43
2021/10/03 07:49:27;;;;;;;73.75;52.43;;;;;;;20.62;32.64;100809.67;1712547;81;21644;-43
2021/10/03 07:51:54;;;;;;;72.32;46.48;;;;;;;20.64;32.45;100810.47;1722291;82;21086;-44
2021/10/03 07:54:20;;;;;;;68.15;46.88;;;;;;;20.68;32.30;100802.69;1707058;82;21102;-41
2021/10/03 07:56:49;;;;;;;57.33;40.85;;;;;;;20.70;32.23;100804.80;1723686;82;21987;-41
2021/10/03 07:59:15;;;;;;;59.18;41.05;;;;;;;20.73;32.12;100811.80;1706359;81;21042;-41
2021/10/03 08:01:42;;;;;;;51.73;37.55;;;;;;;20.76;32.26;100812.48;1708648;82;21031;-41
2021/10/03 08:04:08;;;;;;;54.65;35.78;;;;;;;20.80;32.03;100808.30;1718855;82;21123;-44
2021/10/03 08:06:34;;;;;;;46.00;31.10;;;;;;;20.85;32.27;100804.88;1685402;82;21835;-43
2021/10/03 08:09:01;;;;;;;42.65;31.57;;;;;;;20.88;31.99;100805.57;1704003;82;21078;-44
2021/10/03 08:11:29;;;;;;;38.38;28.87;;;;;;;20.92;31.88;100798.22;1695666;83;21462;-43
2021/10/03 08:13:56;;;;;;;37.42;26.97;;;;;;;20.95;31.92;100796.72;1698192;81;21013;-42
2021/10/03 08:16:22;;;;;;;31.68;21.97;;;;;;;20.98;31.88;100791.19;1658416;83;21569;-42
2021/10/03 08:18:49;;;;;;;34.25;21.73;;;;;;;21.00;31.60;100789.28;1725664;82;20988;-41
2021/10/03 08:21:16;;;;;;;31.95;20.43;;;;;;;21.02;31.60;100792.73;1729610;81;23281;-43
2021/10/03 08:23:42;;;;;;;33.78;20.17;;;;;;;21.05;31.48;100796.56;1734500;80;21173;-43
2021/10/03 08:26:09;;;;;;;30.15;19.50;;;;;;;21.05;31.34;100789.02;1715207;80;21099;-41
2021/10/03 08:28:35;;;;;;;23.62;16.93;;;;;;;21.04;31.27;100794.83;1695907;82;21687;-41
2021/10/03 08:31:02;;;;;;;22.20;14.58;;;;;;;21.06;31.37;100792.06;1722009;80;21078;-42
2021/10/03 08:33:28;;;;;;;23.90;15.20;;;;;;;21.06;31.06;100795.59;1713616;82;21776;-41
2021/10/03 08:35:55;;;;;;;20.80;14.10;;;;;;;21.07;31.30;100795.14;1720384;82;21013;-43
2021/10/03 08:38:21;;;;;;;23.67;14.25;;;;;;;21.08;31.05;100804.42;1708604;82;20987;-41
2021/10/03 08:40:49;;;;;;;21.05;15.32;;;;;;;21.09;31.11;100798.59;1664758;84;21036;-43
2021/10/03 08:43:16;;;;;;;15.90;11.60;;;;;;;21.12;31.88;100800.60;1685660;82;21590;-43
2021/10/03 08:45:43;;;;;;;14.53;11.90;;;;;;;21.19;32.42;100804.27;1692020;82;21047;-43
2021/10/03 08:48:11;;;;;;;13.08;9.73;;;;;;;21.23;32.41;100800.45;1699883;82;21012;-41
2021/10/03 08:50:38;;;;;;;16.93;11.48;;;;;;;21.29;32.67;100804.97;1705690;82;21047;-43
2021/10/03 08:53:04;;;;;;;14.50;10.25;;;;;;;21.33;33.00;100806.98;1663741;83;22371;-42
2021/10/03 08:55:30;;;;;;;12.15;10.20;;;;;;;21.39;33.51;100807.11;1672339;83;21147;-42
2021/10/03 08:57:57;;;;;;;12.78;9.53;;;;;;;21.45;34.01;100803.59;1695164;82;23379;-43
2021/10/03 09:00:24;;;;;;;12.95;8.83;;;;;;;21.50;34.33;100802.87;1663622;84;21076;-44
2021/10/03 09:03:04;;;;;;;11.78;7.45;;;;;;;21.57;34.57;100803.37;1663305;84;21033;-43
2021/10/03 09:05:37;;;;;;;712.85;590.15;;;;;;;21.64;33.75;100806.55;1666667;83;21105;-44
2021/10/03 09:08:09;;;;;;;453.58;349.50;;;;;;;21.68;32.68;100806.73;1693421;82;21079;-44
2021/10/03 09:11:06;;;;;;;419.67;326.07;;;;;;;21.69;32.98;100807.13;1717834;82;21098;-44
2021/10/03 09:13:37;;;;;;;313.85;246.00;;;;;;;21.71;33.56;100803.87;1672344;83;22202;-45
2021/10/03 09:16:33;;;;;;;237.60;178.75;;;;;;;21.76;33.38;100804.45;1707255;82;21149;-44
2021/10/03 09:19:01;;;;;;;236.95;180.93;;;;;;;21.78;32.10;100809.23;1721574;81;21000;-44
2021/10/03 09:21:33;;;;;;;147.40;110.08;;;;;;;21.78;32.12;100809.72;1722423;80;21632;-44
2021/10/03 09:24:12;;;;;;;191.70;143.35;;;;;;;21.79;31.58;100810.97;1723636;82;21134;-44
2021/10/03 09:26:54;;;;;;;188.03;139.30;;;;;;;21.79;31.37;100812.30;1707969;82;20933;-44
2021/10/03 09:29:27;;;;;;;173.95;127.10;;;;;;;21.78;31.30;100811.91;1716197;82;21193;-43
2021/10/03 09:32:18;;;;;;;140.12;102.95;;;;;;;21.79;31.13;100819.48;1695993;82;21066;-43
2021/10/03 09:34:49;;;;;;;131.45;95.25;;;;;;;21.80;30.97;100811.81;1663597;83;21543;-43
2021/10/03 09:37:28;;;;;;;122.50;90.70;;;;;;;21.79;30.61;100810.11;1687094;82;21044;-43
2021/10/03 09:40:07;;;;;;;117.93;83.27;;;;;;;21.80;30.75;100817.17;1709340;81;21048;-43
2021/10/03 09:42:35;;;;;;;101.70;71.17;;;;;;;21.80;30.52;100818.03;1686433;82;21103;-43
2021/10/03 09:45:13;;;;;;;88.62;65.40;;;;;;;21.82;30.48;100819.28;1718857;81;21497;-43
2021/10/03 09:47:44;;;;;;;84.97;61.25;;;;;;;21.82;30.41;100813.47;1705374;82;21076;-43
2021/10/03 09:50:14;;;;;;;71.50;52.62;;;;;;;21.84;30.20;100807.52;1726281;81;21923;-43
2021/10/03 09:52:41;;;;;;;56.80;41.37;;;;;;;21.86;30.09;100804.27;1693053;81;21075;-43
2021/10/03 09:55:14;;;;;;;68.52;47.43;;;;;;;21.89;29.68;100804.08;1716514;81;21024;-43
2021/10/03 09:57:42;;;;;;;64.07;46.80;;;;;;;21.89;29.60;100793.86;1716250;82;21020;-43
2021/10/03 10:00:10;;;;;;;55.28;39.73;;;;;;;21.92;29.77;100803.50;1723035;80;21129;-44
2021/10/03 10:02:37;;;;;;;46.50;30.32;;;;;;;21.92;29.49;100792.30;1712528;82;22262;-43
2021/10/03 10:05:06;;;;;;;40.67;30.45;;;;;;;21.96;28.59;100788.98;1683467;84;20985;-43
2021/10/03 10:07:33;;;;;;;36.93;27.48;;;;;;;21.96;28.95;100783.62;1736783;80;21039;-44
2021/10/03 10:10:00;;;;;;;31.73;25.62;;;;;;;21.95;28.81;100796.13;1733866;80;21548;-43
2021/10/03 10:12:27;;;;;;;39.95;27.05;;;;;;;21.97;28.83;100775.94;1722451;81;21143;-43
2021/10/03 10:15:04;;;;;;;24.70;18.98;;;;;;;21.99;28.97;100782.06;1734288;81;21185;-43
2021/10/03 10:17:39;;;;;;;25.50;20.75;;;;;;;22.00;28.50;100778.44;1724381;81;21011;-43
2021/10/03 10:20:27;;;;;;;22.20;17.42;;;;;;;22.03;28.63;100783.61;1713521;81;21011;-43
2021/10/03 10:23:09;;;;;;;26.27;15.48;;;;;;;22.05;28.51;100781.69;1731678;81;20975;-43
2021/10/03 10:25:49;;;;;;;20.12;16.40;;;;;;;22.08;28.53;100781.50;1701507;83;21140;-43
2021/10/03 10:28:21;;;;;;;18.17;14.80;;;;;;;22.10;28.79;100774.70;1739924;80;21933;-43
2021/10/03 10:31:11;;;;;;;15.70;12.47;;;;;;;22.12;28.76;100774.98;1725627;80;21146;-44
2021/10/03 10:33:57;;;;;;;16.55;12.28;;;;;;;22.14;28.54;100770.41;1700489;81;21531;-43
2021/10/03 10:36:31;;;;;;;19.40;12.50;;;;;;;22.16;28.51;100771.16;1703125;82;21101;-44
2021/10/03 10:39:15;;;;;;;13.28;11.05;;;;;;;22.18;28.31;100765.71;1713375;81;21855;-43
2021/10/03 10:41:48;;;;;;;14.68;9.43;;;;;;;22.17;27.92;100759.47;1697573;80;21132;-44
2021/10/03 10:44:32;;;;;;;12.60;9.28;;;;;;;22.16;28.24;100755.08;1719238;80;21218;-44
2021/10/03 10:47:16;;;;;;;;;;;;;;;22.17;28.36;100752.77;1718902;79;21155;-43
2021/10/03 10:49:52;;;;;;;9.35;8.00;;;;;;;22.17;28.07;100750.08;1728251;80;20212;-43
2021/10/03 10:52:25;;;;;;;9.90;6.78;;;;;;;22.18;28.37;100757.17;1707278;81;21051;-43
2021/10/03 10:55:12;;;;;;;10.43;7.45;;;;;;;22.18;27.84;100756.33;1695991;81;21140;-44
2021/10/03 10:57:57;;;;;;;9.50;7.87;;;;;;;22.14;27.99;100746.28;1707889;81;21153;-43
2021/10/03 11:00:27;;;;;;;8.93;7.30;;;;;;;22.15;28.32;100745.30;1704590;80;21264;-43
2021/10/03 11:03:01;;;;;;;9.50;6.10;;;;;;;22.17;28.63;100742.04;1704398;82;21431;-44
2021/10/03 11:05:44;;;;;;;10.25;6.05;;;;;;;22.20;28.30;100735.15;1654615;83;21432;-44
2021/10/03 11:08:17;;;;;;;8.48;6.28;;;;;;;22.20;27.89;100732.47;1670353;83;21150;-43
2021/10/03 11:11:09;;;;;;;9.43;5.72;;;;;;;22.21;28.24;100731.52;1675858;83;21096;-43
2021/10/03 11:13:49;;;;;;;6.08;4.70;;;;;;;22.21;27.95;100736.88;1674024;83;21047;-43
2021/10/03 11:16:42;;;;;;;6.35;4.83;;;;;;;22.22;27.79;100728.34;1694328;79;21135;-42
2021/10/03 11:19:21;;;;;;;7.28;4.53;;;;;;;22.17;27.67;100727.78;1699042;81;21038;-45